Time;durP1;ratioP1;P1;durP2;ratioP2;P2;SDS_P1;SDS_P2;PMS_P1;PMS_P2;Temp;Humidity;BMP_temperature;BMP_pressure;BME280_temperature;BME280_humidity;BME280_pressure;Samples;Min_cycle;Max_cycle;Signal;HPM_P1;HPM_P2
2021/12/18 00:01:25;;;;;;;28.95;12.20;;;;;;;0.86;86.01;95655.91;4840155;29;20065;-63
2021/12/18 00:03:52;;;;;;;32.28;12.18;;;;;;;0.62;86.58;95648.16;4841077;29;20054;-63
2021/12/18 00:06:20;;;;;;;25.50;10.50;;;;;;;0.56;86.69;95651.00;4840219;29;20066;-62
2021/12/18 00:08:48;;;;;;;25.42;9.98;;;;;;;0.64;86.34;95648.63;4840860;29;20415;-63
2021/12/18 00:11:15;;;;;;;22.10;9.50;;;;;;;0.45;86.70;95646.16;4840601;29;20054;-63
2021/12/18 00:13:42;;;;;;;25.80;10.75;;;;;;;0.56;86.17;95648.28;4840483;29;20073;-63
2021/12/18 00:16:09;;;;;;;25.38;11.52;;;;;;;0.65;86.41;95652.94;4840857;29;20402;-63
2021/12/18 00:18:36;;;;;;;25.92;11.43;;;;;;;0.76;85.49;95656.97;4840313;29;20052;-63
2021/12/18 00:21:05;;;;;;;20.45;8.88;;;;;;;0.71;85.44;95654.41;4840825;29;20038;-63
2021/12/18 00:23:31;;;;;;;19.40;8.67;;;;;;;0.50;84.92;95657.59;4839734;29;20044;-63
2021/12/18 00:25:58;;;;;;;21.60;9.50;;;;;;;0.07;87.01;95651.91;4854304;29;20049;-63
2021/12/18 00:28:25;;;;;;;19.77;8.25;;;;;;;0.26;87.12;95643.63;4839463;29;20045;-63
2021/12/18 00:30:52;;;;;;;22.90;9.43;;;;;;;0.21;86.87;95633.75;4840438;29;20042;-63
2021/12/18 00:33:19;;;;;;;22.15;9.60;;;;;;;0.33;86.59;95639.41;4839967;29;20050;-62
2021/12/18 00:35:45;;;;;;;19.87;8.67;;;;;;;0.42;85.90;95635.94;4840419;29;20052;-62
2021/12/18 00:38:12;;;;;;;20.98;8.68;;;;;;;0.45;85.38;95640.75;4835716;29;20051;-63
2021/12/18 00:40:46;;;;;;;20.58;8.77;;;;;;;0.56;85.21;95631.25;4812370;29;20058;-63
2021/12/18 00:43:32;;;;;;;20.63;8.88;;;;;;;0.48;85.51;95627.41;4804924;29;20484;-63
2021/12/18 00:45:59;;;;;;;21.83;9.10;;;;;;;0.17;85.99;95624.69;4803065;29;20077;-63
2021/12/18 00:48:26;;;;;;;22.33;8.67;;;;;;;0.03;87.07;95622.03;4803107;29;20042;-63
2021/12/18 00:50:53;;;;;;;21.88;9.05;;;;;;;0.24;86.37;95629.63;4828324;29;20046;-63
2021/12/18 00:53:20;;;;;;;19.80;8.35;;;;;;;0.35;85.52;95626.38;4839367;29;20056;-63
2021/12/18 00:55:49;;;;;;;20.40;8.50;;;;;;;0.42;85.59;95622.44;4838931;29;20050;-63
2021/12/18 00:58:16;;;;;;;24.30;9.68;;;;;;;0.46;84.89;95620.72;4839577;29;20128;-63
2021/12/18 01:00:43;;;;;;;24.20;9.70;;;;;;;0.26;85.46;95616.63;4839267;29;20084;-63
2021/12/18 01:03:19;;;;;;;19.88;8.82;;;;;;;0.38;85.30;95614.16;4840291;29;20037;-63
2021/12/18 01:05:48;;;;;;;22.08;9.38;;;;;;;0.43;85.13;95619.44;4838751;29;20941;-63
2021/12/18 01:08:16;;;;;;;20.98;8.80;;;;;;;0.50;84.48;95617.09;4839394;29;20050;-63
2021/12/18 01:13:33;;;;;;;20.57;8.33;;;;;;;0.36;84.57;95611.78;4837844;29;20057;-62
2021/12/18 01:16:10;;;;;;;21.02;8.95;;;;;;;0.31;84.61;95617.31;4838556;29;20037;-63
2021/12/18 01:24:09;;;;;;;21.90;9.00;;;;;;;0.27;85.20;95623.63;4839569;29;20056;-64
2021/12/18 01:26:36;;;;;;;22.70;9.00;;;;;;;0.16;85.19;95623.88;4838713;29;20042;-63
2021/12/18 01:29:03;;;;;;;21.58;8.35;;;;;;;-0.13;85.31;95629.69;4839540;29;20064;-66
2021/12/18 01:31:30;;;;;;;23.15;9.25;;;;;;;0.13;85.25;95629.88;4838720;29;20050;-64
2021/12/18 01:33:56;;;;;;;19.95;8.52;;;;;;;0.18;84.88;95628.94;4839723;29;20054;-63
2021/12/18 01:36:24;;;;;;;23.60;9.73;;;;;;;0.08;85.49;95631.91;4838697;29;20050;-63
2021/12/18 01:38:51;;;;;;;22.17;8.73;;;;;;;-0.21;85.89;95631.19;4825330;29;20061;-63
2021/12/18 01:41:19;;;;;;;23.63;9.32;;;;;;;0.02;85.84;95627.72;4824400;29;20046;-58
2021/12/18 01:44:35;;;;;;;21.17;9.13;;;;;;;-0.30;87.07;95630.34;4819896;29;20061;-63
2021/12/18 01:52:41;;;;;;;25.93;10.03;;;;;;;-0.89;89.41;95624.81;4763851;30;20052;-63
2021/12/18 01:55:10;;;;;;;26.17;9.70;;;;;;;-0.75;88.80;95627.50;4818617;29;20151;-63
2021/12/18 01:57:38;;;;;;;25.98;9.55;;;;;;;-0.53;88.30;95634.09;4838499;29;20066;-63
2021/12/18 02:00:36;;;;;;;44.45;17.63;;;;;;;-0.23;87.31;95638.00;4853089;29;20050;-63
2021/12/18 02:03:04;;;;;;;27.15;10.43;;;;;;;-0.43;87.50;95633.84;4826366;29;20253;-63
2021/12/18 02:05:31;;;;;;;25.17;9.50;;;;;;;-0.29;87.15;95628.44;4838491;29;20061;-63
2021/12/18 02:07:58;;;;;;;23.67;9.57;;;;;;;-0.43;87.09;95634.66;4839162;29;20050;-63
2021/12/18 02:10:29;;;;;;;24.80;9.95;;;;;;;-0.20;86.72;95632.03;4838794;29;20050;-63
2021/12/18 02:21:17;;;;;;;23.58;8.93;;;;;;;-0.13;85.29;95632.38;4838184;29;20682;-63
2021/12/18 02:23:44;;;;;;;25.50;9.52;;;;;;;-0.21;84.90;95630.41;4836789;29;20713;-63
2021/12/18 02:26:12;;;;;;;22.60;9.40;;;;;;;-0.27;85.97;95618.94;4838859;29;20041;-63
2021/12/18 02:28:42;;;;;;;24.30;9.45;;;;;;;-0.19;85.35;95627.41;4838462;29;20050;-63
2021/12/18 02:31:09;;;;;;;22.73;9.27;;;;;;;-0.33;85.14;95619.34;4838981;29;20042;-63
2021/12/18 02:33:36;;;;;;;26.25;9.27;;;;;;;-0.29;85.74;95623.84;4841768;29;20083;-63
2021/12/18 02:36:06;;;;;;;23.17;9.18;;;;;;;-0.15;85.48;95626.50;4842649;29;20065;-63
2021/12/18 02:42:07;;;;;;;22.50;9.23;;;;;;;-0.21;85.35;95615.00;4842440;29;20054;-63
2021/12/18 02:44:13;;;;;;;25.20;9.80;;;;;;;-0.27;85.17;95615.44;4839925;29;20057;-63
2021/12/18 02:46:41;;;;;;;22.65;8.85;;;;;;;-0.16;85.47;95616.81;4841411;29;20076;-63
2021/12/18 02:49:11;;;;;;;26.13;10.15;;;;;;;-0.06;84.92;95619.28;4842407;29;20048;-63
2021/12/18 02:51:37;;;;;;;24.98;9.73;;;;;;;-0.21;84.91;95628.50;4841553;29;20050;-63
2021/12/18 02:54:04;;;;;;;24.02;9.32;;;;;;;-0.22;85.97;95620.72;4842212;29;20060;-63
2021/12/18 02:56:32;;;;;;;24.23;9.20;;;;;;;-0.09;85.05;95622.56;4841358;29;20038;-63
2021/12/18 02:59:05;;;;;;;25.27;9.27;;;;;;;-0.06;84.66;95610.34;4842000;29;20076;-63
2021/12/18 03:01:34;;;;;;;25.10;9.32;;;;;;;-0.09;84.77;95609.06;4839730;29;20088;-63
2021/12/18 03:04:10;;;;;;;24.58;9.40;;;;;;;-0.28;85.36;95616.53;4842313;29;20058;-63
2021/12/18 03:06:42;;;;;;;25.13;9.35;;;;;;;-0.18;85.24;95610.94;4841366;29;22522;-63
2021/12/18 03:20:47;;;;;;;24.02;9.00;;;;;;;-0.54;86.83;95606.31;4822559;29;20173;-63
2021/12/18 03:25:34;;;;;;;24.58;9.18;;;;;;;-0.39;86.30;95609.78;4821736;29;20380;-63
2021/12/18 03:28:04;;;;;;;24.15;9.98;;;;;;;-0.42;86.10;95605.81;4823516;29;20510;-63
2021/12/18 03:30:33;;;;;;;23.05;8.85;;;;;;;-0.38;85.84;95606.78;4822365;29;20064;-63
2021/12/18 03:33:00;;;;;;;28.10;10.32;;;;;;;-0.40;86.45;95609.00;4823330;29;20058;-63
2021/12/18 03:35:27;;;;;;;25.33;9.70;;;;;;;-0.37;85.98;95607.56;4822460;29;20118;-63
2021/12/18 03:37:54;;;;;;;24.05;9.25;;;;;;;-0.43;86.05;95613.06;4823157;29;20263;-63
2021/12/18 03:40:24;;;;;;;25.85;9.57;;;;;;;-0.51;86.66;95616.50;4821442;29;20434;-62
2021/12/18 03:42:51;;;;;;;28.70;9.98;;;;;;;-0.74;86.96;95614.84;4822745;29;20052;-63
2021/12/18 03:45:19;;;;;;;25.25;9.80;;;;;;;-0.71;87.26;95622.31;4822611;29;20152;-60
2021/12/18 03:47:48;;;;;;;25.10;9.57;;;;;;;-0.63;87.43;95621.59;4822911;29;20065;-63
2021/12/18 03:50:16;;;;;;;26.35;9.98;;;;;;;-0.67;87.13;95620.63;4830525;29;20065;-63
2021/12/18 03:52:42;;;;;;;23.30;9.25;;;;;;;-0.47;86.58;95622.09;4840798;29;20837;-63
2021/12/18 03:55:09;;;;;;;25.30;9.40;;;;;;;-0.46;86.61;95619.09;4841091;29;20049;-63
2021/12/18 03:57:36;;;;;;;25.35;9.77;;;;;;;-0.49;85.99;95616.19;4839891;29;20069;-63
2021/12/18 04:00:06;;;;;;;24.87;9.30;;;;;;;-0.44;86.10;95618.78;4841298;29;20050;-63
2021/12/18 04:02:33;;;;;;;30.35;12.30;;;;;;;-0.41;86.22;95613.56;4840140;29;20054;-63
2021/12/18 04:05:00;;;;;;;26.38;10.13;;;;;;;-0.40;85.84;95622.47;4854918;29;20048;-63
2021/12/18 04:07:26;;;;;;;24.60;8.75;;;;;;;-0.39;86.24;95615.97;4839358;29;20052;-63
2021/12/18 04:09:53;;;;;;;24.65;9.20;;;;;;;-0.32;85.47;95610.16;4854867;29;20046;-63
2021/12/18 04:12:20;;;;;;;25.33;9.47;;;;;;;-0.26;85.57;95611.66;4814403;29;20057;-62
2021/12/18 04:14:47;;;;;;;24.88;9.20;;;;;;;-0.33;85.58;95611.25;4803088;29;20042;-63
2021/12/18 04:17:14;;;;;;;24.95;10.40;;;;;;;-0.37;85.65;95607.56;4804379;29;20055;-63
2021/12/18 04:19:40;;;;;;;25.33;9.45;;;;;;;-0.37;86.13;95608.38;4803725;29;20065;-63
2021/12/18 04:22:07;;;;;;;25.83;9.48;;;;;;;-0.34;85.96;95606.94;4817815;29;20051;-63
2021/12/18 04:24:34;;;;;;;24.97;9.30;;;;;;;-0.37;86.09;95602.19;4803375;29;20047;-63
2021/12/18 04:27:00;;;;;;;26.27;9.93;;;;;;;-0.33;85.92;95595.06;4804101;29;20055;-63
2021/12/18 04:29:27;;;;;;;25.83;9.38;;;;;;;-0.34;86.25;95605.06;4817020;29;20039;-63
2021/12/18 04:31:54;;;;;;;28.45;10.45;;;;;;;-0.50;85.98;95601.13;4804010;29;20054;-63
2021/12/18 04:34:21;;;;;;;24.48;8.93;;;;;;;-0.52;86.53;95596.03;4802384;29;20485;-62
2021/12/18 04:36:47;;;;;;;25.93;10.23;;;;;;;-0.48;86.07;95597.03;4803743;29;20050;-63
2021/12/18 04:39:14;;;;;;;24.92;8.80;;;;;;;-0.55;85.85;95599.31;4804169;29;20408;-63
2021/12/18 04:41:50;;;;;;;25.00;9.48;;;;;;;-0.67;86.29;95604.44;4803298;29;20054;-63
2021/12/18 04:44:17;;;;;;;23.08;8.88;;;;;;;-0.66;86.03;95608.75;4803867;29;20043;-63
2021/12/18 04:46:44;;;;;;;24.85;8.68;;;;;;;-0.70;86.22;95602.38;4802590;29;20378;-63
2021/12/18 04:49:11;;;;;;;25.10;8.80;;;;;;;-0.71;86.20;95606.16;4817793;29;20058;-63
2021/12/18 04:51:38;;;;;;;22.15;8.60;;;;;;;-0.73;86.53;95609.13;4838956;29;20057;-63
2021/12/18 04:54:05;;;;;;;25.52;9.45;;;;;;;-0.80;86.47;95608.75;4839638;29;20046;-63
2021/12/18 04:56:31;;;;;;;27.08;9.85;;;;;;;-0.85;86.77;95606.94;4839354;29;20069;-63
2021/12/18 04:58:58;;;;;;;25.70;8.65;;;;;;;-1.10;87.76;95592.09;4840328;29;20046;-64
2021/12/18 05:01:25;;;;;;;25.77;9.13;;;;;;;-1.18;88.32;95592.81;4839593;29;20062;-62
2021/12/18 05:03:52;;;;;;;26.52;9.18;;;;;;;-1.17;88.02;95588.22;4840013;29;20050;-63
2021/12/18 05:06:20;;;;;;;25.83;9.35;;;;;;;-1.19;88.01;95585.81;4838518;29;20061;-62
2021/12/18 05:08:47;;;;;;;26.95;9.55;;;;;;;-1.23;87.86;95582.13;4839765;29;20411;-63
2021/12/18 05:11:14;;;;;;;25.67;9.45;;;;;;;-1.29;88.04;95580.63;4827023;29;20046;-63
2021/12/18 05:13:40;;;;;;;26.33;9.63;;;;;;;-1.52;88.86;95572.44;4810677;29;20050;-63
2021/12/18 05:16:07;;;;;;;24.85;8.50;;;;;;;-1.53;88.70;95568.16;4821700;29;20367;-63
2021/12/18 05:18:34;;;;;;;24.55;9.57;;;;;;;-1.56;88.32;95570.63;4820961;29;20052;-64
2021/12/18 05:21:01;;;;;;;24.42;8.80;;;;;;;-1.58;88.42;95570.13;4821908;29;20353;-63
2021/12/18 05:23:27;;;;;;;24.25;9.23;;;;;;;-1.59;88.65;95572.00;4821051;29;20072;-63
2021/12/18 05:25:54;;;;;;;25.40;8.23;;;;;;;-1.59;88.56;95574.69;4821416;29;20042;-63
2021/12/18 05:28:21;;;;;;;27.30;9.57;;;;;;;-1.63;88.91;95565.63;4821107;29;20046;-62
2021/12/18 05:30:48;;;;;;;27.40;9.50;;;;;;;-1.66;89.23;95574.31;4821141;29;20049;-63
2021/12/18 05:33:14;;;;;;;26.77;9.48;;;;;;;-1.69;89.01;95572.19;4821414;29;20054;-63
2021/12/18 05:35:41;;;;;;;27.02;10.27;;;;;;;-1.76;88.90;95567.22;4834563;29;20058;-63
2021/12/18 05:38:09;;;;;;;25.67;9.13;;;;;;;-1.71;89.00;95563.63;4821484;29;20053;-63
2021/12/18 05:40:37;;;;;;;28.88;10.25;;;;;;;-1.73;89.23;95555.88;4820885;29;20054;-63
2021/12/18 05:43:06;;;;;;;40.67;13.90;;;;;;;-1.77;89.09;95560.25;4821362;29;20057;-63
2021/12/18 05:45:34;;;;;;;42.08;15.23;;;;;;;-1.77;88.77;95554.88;4820671;29;20043;-63
2021/12/18 05:48:01;;;;;;;36.13;13.80;;;;;;;-2.05;90.29;95560.16;4821066;29;20055;-63
2021/12/18 05:50:29;;;;;;;29.80;10.60;;;;;;;-1.96;89.39;95568.34;4829861;29;20082;-62
2021/12/18 05:52:59;;;;;;;32.17;11.55;;;;;;;-1.92;89.08;95566.69;4839555;29;20050;-63
2021/12/18 05:55:29;;;;;;;29.92;11.35;;;;;;;-1.93;89.58;95561.59;4838615;29;20113;-63
2021/12/18 05:57:56;;;;;;;31.50;10.45;;;;;;;-1.92;89.27;95566.69;4839375;29;20412;-63
2021/12/18 06:00:23;;;;;;;26.25;9.70;;;;;;;-1.91;88.90;95567.47;4838693;29;20077;-63
2021/12/18 06:02:50;;;;;;;27.97;10.53;;;;;;;-1.92;88.61;95573.97;4838740;29;20437;-63
2021/12/18 06:05:17;;;;;;;33.47;11.75;;;;;;;-2.07;89.98;95572.31;4838975;29;20492;-63
2021/12/18 06:10:11;;;;;;;29.45;10.68;;;;;;;-2.07;90.04;95583.09;4839041;29;20056;-63
2021/12/18 06:12:38;;;;;;;26.17;9.88;;;;;;;-2.09;89.57;95577.22;4837433;29;20049;-63
2021/12/18 06:15:05;;;;;;;25.87;9.13;;;;;;;-2.17;90.08;95575.16;4838981;29;20141;-63
2021/12/18 06:17:32;;;;;;;24.98;8.52;;;;;;;-2.17;89.30;95577.84;4838412;29;20048;-63
2021/12/18 06:19:58;;;;;;;35.78;12.52;;;;;;;-2.52;90.78;95590.75;4838889;29;20057;-63
2021/12/18 06:22:25;;;;;;;34.67;12.60;;;;;;;-2.89;91.92;95589.66;4838586;29;20052;-62
2021/12/18 06:24:52;;;;;;;32.28;11.27;;;;;;;-2.69;91.19;95589.38;4838634;29;20094;-63
2021/12/18 06:27:18;;;;;;;33.53;11.00;;;;;;;-2.84;91.21;95589.56;4838470;29;20488;-62
2021/12/18 06:29:47;;;;;;;31.08;10.57;;;;;;;-3.08;91.65;95597.66;4837467;29;20042;-63
2021/12/18 06:32:14;;;;;;;31.00;10.30;;;;;;;-3.36;92.55;95592.09;4839064;29;20084;-63
2021/12/18 06:34:40;;;;;;;36.58;11.60;;;;;;;-3.55;92.41;95602.75;4838286;29;20049;-63
2021/12/18 06:37:07;;;;;;;64.07;11.80;;;;;;;-3.70;92.95;95602.88;4839032;29;20046;-63
2021/12/18 06:39:34;;;;;;;71.10;12.73;;;;;;;-3.86;94.06;95604.94;4837954;29;20052;-63
2021/12/18 06:42:01;;;;;;;41.58;13.25;;;;;;;-3.79;94.41;95610.75;4837201;29;20052;-63
2021/12/18 06:44:28;;;;;;;65.95;16.40;;;;;;;-3.78;94.67;95607.00;4838341;29;20042;-62
2021/12/18 06:46:56;;;;;;;88.90;24.15;;;;;;;-3.72;94.89;95613.09;4838642;29;20056;-63
2021/12/18 06:49:23;;;;;;;193.18;22.45;;;;;;;-3.78;95.93;95614.22;4837318;29;20046;-63
2021/12/18 06:51:50;;;;;;;128.63;17.40;;;;;;;-3.62;96.91;95621.09;4838463;29;20094;-63
2021/12/18 06:54:16;;;;;;;99.47;14.20;;;;;;;-3.53;97.16;95624.72;4838995;29;20061;-63
2021/12/18 06:56:43;;;;;;;69.72;12.88;;;;;;;-3.36;97.39;95632.34;4836061;29;21385;-63
2021/12/18 06:59:11;;;;;;;88.18;12.50;;;;;;;-3.36;97.62;95632.34;4837435;29;20046;-63
2021/12/18 07:01:38;;;;;;;109.45;12.85;;;;;;;-3.36;98.21;95634.22;4837885;29;20053;-63
2021/12/18 07:04:04;;;;;;;188.50;14.70;;;;;;;-3.30;98.97;95641.13;4838624;29;20045;-63
2021/12/18 07:06:31;;;;;;;141.77;11.65;;;;;;;-3.24;99.57;95631.94;4837809;29;20054;-62
2021/12/18 07:08:58;;;;;;;232.30;15.38;;;;;;;-3.30;99.72;95638.44;4837170;29;20068;-63
2021/12/18 07:11:25;;;;;;;360.40;18.08;;;;;;;-3.19;100.00;95639.16;4838049;29;20064;-62
2021/12/18 07:13:52;;;;;;;132.70;12.40;;;;;;;-3.05;100.00;95632.00;4838324;29;20094;-63
2021/12/18 07:16:19;;;;;;;203.87;13.33;;;;;;;-2.99;100.00;95635.44;4838093;29;20129;-62
2021/12/18 07:18:46;;;;;;;215.93;15.93;;;;;;;-3.01;100.00;95635.72;4840326;29;20103;-63
2021/12/18 07:21:13;;;;;;;380.75;20.45;;;;;;;-3.07;100.00;95632.28;4842031;29;20054;-63
2021/12/18 07:23:41;;;;;;;213.73;14.77;;;;;;;-2.99;100.00;95630.88;4840046;29;20046;-63
2021/12/18 07:26:08;;;;;;;285.77;18.45;;;;;;;-2.97;100.00;95634.06;4841661;29;20038;-63
2021/12/18 07:28:34;;;;;;;174.93;15.37;;;;;;;-3.00;100.00;95631.94;4840081;29;20056;-62
2021/12/18 07:31:01;;;;;;;369.58;18.13;;;;;;;-3.13;100.00;95630.75;4841614;29;20046;-63
2021/12/18 07:33:28;;;;;;;170.38;14.00;;;;;;;-2.76;100.00;95631.13;4840670;29;20058;-62
2021/12/18 07:35:55;;;;;;;156.73;15.70;;;;;;;-2.70;100.00;95638.81;4841261;29;20455;-63
2021/12/18 07:38:22;;;;;;;133.27;13.07;;;;;;;-2.59;100.00;95626.06;4841260;29;20050;-62
2021/12/18 07:40:49;;;;;;;156.10;16.63;;;;;;;-2.81;100.00;95637.38;4836173;29;20385;-63
2021/12/18 07:43:15;;;;;;;115.10;15.88;;;;;;;-2.53;100.00;95635.66;4812552;29;20047;-63
2021/12/18 07:45:44;;;;;;;115.68;14.98;;;;;;;-2.44;100.00;95635.78;4802870;29;20107;-63
2021/12/18 07:48:10;;;;;;;111.40;12.95;;;;;;;-2.39;99.59;95634.91;4803199;29;20126;-63
2021/12/18 07:50:37;;;;;;;78.88;13.02;;;;;;;-2.35;99.38;95636.75;4824670;29;20050;-64
2021/12/18 07:53:04;;;;;;;86.53;14.00;;;;;;;-2.13;99.44;95628.09;4841113;29;20046;-63
2021/12/18 07:55:31;;;;;;;71.38;14.68;;;;;;;-2.20;98.75;95627.66;4840449;29;20046;-63
2021/12/18 07:57:57;;;;;;;113.03;14.15;;;;;;;-1.99;98.50;95624.63;4839398;29;20054;-62
2021/12/18 08:00:25;;;;;;;98.05;11.80;;;;;;;-2.08;98.17;95625.31;4839456;29;20073;-63
2021/12/18 08:02:51;;;;;;;159.00;13.50;;;;;;;-2.45;97.95;95629.63;4840525;29;20050;-63
2021/12/18 08:05:18;;;;;;;271.50;14.77;;;;;;;-2.83;98.36;95631.47;4840642;29;20054;-61
2021/12/18 08:07:46;;;;;;;180.23;13.40;;;;;;;-2.73;100.00;95639.41;4840622;29;20513;-63
2021/12/18 08:10:14;;;;;;;162.65;15.93;;;;;;;-2.37;100.00;95636.25;4840902;29;20056;-63
2021/12/18 08:12:41;;;;;;;185.07;15.93;;;;;;;-2.25;99.84;95630.44;4840414;29;20046;-63
2021/12/18 08:15:09;;;;;;;307.95;18.20;;;;;;;-2.53;100.00;95638.34;4839671;29;20042;-63
2021/12/18 08:17:35;;;;;;;404.23;20.77;;;;;;;-2.98;100.00;95643.19;4840286;29;20038;-63
2021/12/18 08:20:05;;;;;;;340.85;21.02;;;;;;;-2.86;100.00;95643.59;4840073;29;20081;-63
2021/12/18 08:22:32;;;;;;;112.45;13.35;;;;;;;-2.53;100.00;95641.03;4838580;29;20046;-63
2021/12/18 08:25:00;;;;;;;428.95;21.65;;;;;;;-2.80;100.00;95638.94;4820835;29;20050;-63
2021/12/18 08:27:29;;;;;;;232.70;16.88;;;;;;;-2.66;100.00;95642.53;4813657;29;20046;-63
2021/12/18 08:29:56;;;;;;;76.70;14.00;;;;;;;-2.37;100.00;95640.81;4803237;29;20062;-63
2021/12/18 08:32:23;;;;;;;140.10;16.08;;;;;;;-2.16;100.00;95652.06;4812473;29;20058;-63
2021/12/18 08:34:50;;;;;;;155.90;15.10;;;;;;;-2.14;100.00;95644.50;4818814;29;20420;-62
2021/12/18 08:37:20;;;;;;;329.92;22.80;;;;;;;-2.30;100.00;95647.41;4803975;29;20068;-63
2021/12/18 08:39:48;;;;;;;283.67;19.10;;;;;;;-2.15;100.00;95651.78;4802670;29;20888;-63
2021/12/18 08:42:15;;;;;;;193.47;21.03;;;;;;;-2.05;100.00;95648.94;4803879;29;20050;-63
2021/12/18 08:44:42;;;;;;;188.07;18.40;;;;;;;-1.82;99.97;95632.97;4803130;29;20043;-63
2021/12/18 08:47:10;;;;;;;95.10;17.25;;;;;;;-1.50;99.36;95640.25;4803724;29;20057;-63
2021/12/18 08:49:40;;;;;;;224.10;22.55;;;;;;;-1.58;98.86;95632.06;4808638;29;20042;-63
2021/12/18 08:52:07;;;;;;;243.60;18.80;;;;;;;-1.97;98.44;95638.59;4839061;29;20060;-63
2021/12/18 08:54:34;;;;;;;379.13;20.40;;;;;;;-1.78;98.58;95639.38;4839786;29;20411;-63
2021/12/18 08:57:08;;;;;;;163.93;14.18;;;;;;;-1.72;98.67;95640.09;4839864;29;20062;-63
2021/12/18 08:59:35;;;;;;;80.65;13.73;;;;;;;-1.35;98.50;95631.09;4839915;29;20102;-63
2021/12/18 09:02:01;;;;;;;205.10;14.50;;;;;;;-1.36;97.03;95639.47;4840150;29;20066;-63
2021/12/18 09:04:28;;;;;;;202.18;13.82;;;;;;;-1.92;97.70;95636.63;4839252;29;20037;-62
2021/12/18 09:06:55;;;;;;;99.80;11.80;;;;;;;-1.58;97.58;95632.06;4834616;29;20089;-63
2021/12/18 09:09:22;;;;;;;106.10;12.90;;;;;;;-1.90;98.09;95630.97;4803308;29;20058;-62
2021/12/18 09:11:49;;;;;;;183.40;14.80;;;;;;;-1.83;97.93;95628.72;4804463;29;20043;-63
2021/12/18 09:14:16;;;;;;;80.53;13.13;;;;;;;-1.56;97.63;95633.34;4802679;29;20168;-63
2021/12/18 09:16:43;;;;;;;48.17;13.32;;;;;;;-1.32;96.87;95635.88;4802162;29;20466;-62
2021/12/18 09:19:10;;;;;;;67.60;14.50;;;;;;;-1.16;95.70;95628.31;4803252;29;20130;-63
2021/12/18 09:21:36;;;;;;;85.43;15.30;;;;;;;-1.36;94.50;95629.50;4802804;29;20462;-62
2021/12/18 09:24:03;;;;;;;53.53;12.32;;;;;;;-1.03;94.96;95629.41;4816678;29;20402;-63
2021/12/18 09:26:30;;;;;;;51.10;12.93;;;;;;;-1.23;95.08;95627.91;4802650;29;20043;-63
2021/12/18 09:28:57;;;;;;;67.25;13.68;;;;;;;-1.01;94.86;95628.03;4812848;29;20047;-63
2021/12/18 09:31:25;;;;;;;49.80;12.90;;;;;;;-0.75;94.67;95632.09;4812234;29;20462;-63
2021/12/18 09:33:52;;;;;;;35.50;11.93;;;;;;;-0.77;94.16;95628.91;4818341;29;20042;-63
2021/12/18 09:36:20;;;;;;;70.65;12.32;;;;;;;-0.75;93.14;95630.19;4814854;29;20055;-62
2021/12/18 09:38:47;;;;;;;55.00;15.32;;;;;;;-0.85;94.29;95631.19;4807895;29;20169;-63
2021/12/18 09:41:14;;;;;;;103.22;15.00;;;;;;;-1.27;95.88;95616.97;4816423;29;20047;-62
2021/12/18 09:43:40;;;;;;;76.33;14.20;;;;;;;-1.12;95.44;95623.94;4802174;29;20062;-63
2021/12/18 09:46:10;;;;;;;60.90;14.25;;;;;;;-0.82;94.31;95617.13;4802434;29;20055;-62
2021/12/18 09:48:39;;;;;;;70.78;13.50;;;;;;;-0.72;93.15;95613.44;4802100;29;20053;-64
2021/12/18 09:51:12;;;;;;;106.60;12.95;;;;;;;-1.09;93.27;95615.25;4821584;29;20099;-62
2021/12/18 09:53:40;;;;;;;66.70;12.30;;;;;;;-0.98;94.01;95609.69;4817139;29;20058;-62
2021/12/18 09:56:08;;;;;;;41.60;13.60;;;;;;;-0.31;92.99;95612.53;4800750;29;20062;-62
2021/12/18 09:58:34;;;;;;;37.72;12.90;;;;;;;-0.36;92.35;95607.28;4802071;29;20059;-62
2021/12/18 10:01:02;;;;;;;42.50;12.38;;;;;;;-0.86;92.98;95605.38;4816198;29;20047;-62
2021/12/18 10:03:51;;;;;;;81.13;13.30;;;;;;;-0.99;94.26;95595.38;4801816;29;20050;-62
2021/12/18 10:06:41;;;;;;;64.40;13.15;;;;;;;-0.86;95.02;95599.19;4823410;29;20081;-62
2021/12/18 10:09:16;;;;;;;50.27;11.63;;;;;;;-0.81;94.55;95597.16;4838116;29;20407;-62
2021/12/18 10:11:49;;;;;;;71.60;11.60;;;;;;;-1.01;94.06;95597.56;4838582;29;20064;-62
2021/12/18 10:14:18;;;;;;;46.72;11.05;;;;;;;-0.71;94.06;95606.94;4839207;29;20065;-62
2021/12/18 10:16:47;;;;;;;99.68;12.55;;;;;;;-1.35;94.20;95588.00;4838045;29;20914;-65
2021/12/18 10:19:26;;;;;;;55.38;10.18;;;;;;;-1.10;94.87;95589.41;4839048;29;20054;-61
2021/12/18 10:22:00;;;;;;;41.43;10.73;;;;;;;-0.78;93.54;95578.81;4837661;29;20555;-61
2021/12/18 10:24:28;;;;;;;48.80;10.40;;;;;;;-0.34;92.64;95578.09;4838266;29;20052;-64
2021/12/18 10:26:55;;;;;;;32.03;10.23;;;;;;;0.14;90.07;95577.50;4838667;29;20385;-64
2021/12/18 10:29:30;;;;;;;50.20;10.77;;;;;;;-0.24;90.47;95566.28;4838539;29;20186;-62
2021/12/18 10:32:19;;;;;;;36.55;10.65;;;;;;;0.11;89.67;95570.00;4838752;29;20049;-62
2021/12/18 10:34:57;;;;;;;43.00;10.73;;;;;;;0.10;89.84;95567.59;4838018;29;20053;-63
2021/12/18 10:37:34;;;;;;;40.80;11.27;;;;;;;0.29;89.32;95560.09;4838314;29;20038;-62
2021/12/18 10:40:08;;;;;;;69.68;11.70;;;;;;;0.05;88.91;95559.66;4838546;29;20042;-62
2021/12/18 10:42:50;;;;;;;48.25;13.88;;;;;;;0.24;88.45;95552.13;4838684;29;20093;-62
2021/12/18 10:45:22;;;;;;;32.42;11.70;;;;;;;0.38;89.45;95547.47;4839018;29;20049;-62
2021/12/18 10:47:53;;;;;;;37.53;12.80;;;;;;;0.53;88.70;95548.16;4837739;29;20198;-63
2021/12/18 10:50:51;;;;;;;39.80;13.20;;;;;;;0.73;88.52;95542.19;4838585;29;20046;-62
2021/12/18 10:53:31;;;;;;;69.97;14.63;;;;;;;-0.30;90.68;95549.41;4840440;29;20050;-63
2021/12/18 10:56:03;;;;;;;48.30;12.55;;;;;;;0.01;90.58;95539.78;4841225;29;20084;-63
2021/12/18 10:58:33;;;;;;;49.10;11.25;;;;;;;-0.26;90.78;95536.91;4841645;29;20069;-64
2021/12/18 11:01:01;;;;;;;48.60;11.40;;;;;;;-0.15;89.99;95537.44;4842127;29;20057;-64
2021/12/18 11:03:32;;;;;;;36.97;11.23;;;;;;;0.23;88.47;95547.06;4841469;29;20118;-62
2021/12/18 11:06:20;;;;;;;34.20;11.18;;;;;;;0.38;88.83;95541.25;4841931;29;20049;-62
2021/12/18 11:09:04;;;;;;;37.88;10.50;;;;;;;0.34;88.76;95538.38;4841299;29;20163;-62
2021/12/18 11:14:33;;;;;;;49.10;11.43;;;;;;;0.29;88.57;95535.81;4841454;29;20056;-62
2021/12/18 11:17:03;;;;;;;79.20;13.15;;;;;;;-0.29;89.93;95528.63;4841589;29;20050;-63
2021/12/18 11:19:32;;;;;;;59.05;12.40;;;;;;;0.20;89.60;95532.25;4841327;29;20045;-62
2021/12/18 11:22:04;;;;;;;33.33;10.60;;;;;;;-0.27;89.79;95534.50;4811057;29;20373;-63
2021/12/18 11:24:39;;;;;;;37.28;10.25;;;;;;;-0.05;89.44;95534.50;4818003;29;20062;-63
2021/12/18 11:27:09;;;;;;;42.73;11.67;;;;;;;-0.08;89.59;95526.22;4805306;29;20134;-62
2021/12/18 11:29:47;;;;;;;42.17;11.52;;;;;;;-0.23;91.17;95527.38;4804867;29;20065;-62
2021/12/18 11:32:20;;;;;;;37.15;11.50;;;;;;;0.16;89.49;95515.91;4805595;29;20061;-62
2021/12/18 11:34:49;;;;;;;33.30;11.45;;;;;;;0.71;87.28;95520.09;4804282;29;20392;-63
2021/12/18 11:37:18;;;;;;;30.65;10.32;;;;;;;0.31;88.61;95511.19;4818978;29;20061;-63
2021/12/18 11:39:48;;;;;;;35.93;10.47;;;;;;;0.25;89.11;95505.13;4804389;29;20775;-62
2021/12/18 11:42:16;;;;;;;33.17;10.73;;;;;;;0.19;88.80;95499.06;4805186;29;20485;-62
2021/12/18 11:44:52;;;;;;;34.75;10.70;;;;;;;0.19;88.63;95499.06;4803161;29;20073;-62
2021/12/18 11:47:27;;;;;;;28.40;10.50;;;;;;;0.90;86.97;95494.72;4804483;29;20080;-61
2021/12/18 11:49:59;;;;;;;31.55;10.77;;;;;;;0.83;87.03;95497.88;4814292;29;20399;-63
2021/12/18 11:52:27;;;;;;;33.33;11.43;;;;;;;0.62;87.86;95486.84;4840870;29;20042;-62
2021/12/18 11:54:57;;;;;;;42.03;11.30;;;;;;;0.53;87.91;95483.31;4841026;29;20468;-63
2021/12/18 11:57:39;;;;;;;28.90;10.70;;;;;;;0.63;87.74;95485.75;4840484;29;20046;-63
2021/12/18 12:00:34;;;;;;;31.75;11.65;;;;;;;0.41;88.66;95480.44;4841057;29;20056;-63
2021/12/18 12:03:03;;;;;;;36.42;12.25;;;;;;;0.37;88.77;95480.25;4833921;29;20128;-62
2021/12/18 12:05:35;;;;;;;30.70;10.87;;;;;;;0.53;89.04;95478.72;4840203;29;20060;-63
2021/12/18 12:08:37;;;;;;;35.13;12.15;;;;;;;0.18;89.53;95483.16;4840798;29;20054;-62
2021/12/18 12:11:16;;;;;;;33.55;12.38;;;;;;;0.51;88.48;95472.03;4840175;29;21728;-62
2021/12/18 12:14:14;;;;;;;30.75;11.70;;;;;;;0.78;86.67;95463.66;4840886;29;20052;-62